createdAt,value
2023-09-27T00:02:13.695Z,101888.97
2023-09-27T00:04:40.923Z,101901.97
2023-09-27T00:07:09.987Z,101899.94
2023-09-27T00:09:37.506Z,101901.41
2023-09-27T00:12:06.079Z,101909.06
2023-09-27T00:14:32.964Z,101898.13
2023-09-27T00:16:59.890Z,101900.44
2023-09-27T00:19:26.837Z,101904.78
2023-09-27T00:21:53.828Z,101907.06
2023-09-27T00:24:22.231Z,101909.75
2023-09-27T00:26:49.102Z,101909.56
2023-09-27T00:29:15.955Z,101920.72
2023-09-27T00:31:42.940Z,101924.03
2023-09-27T00:34:09.910Z,101924.69
2023-09-27T00:36:37.116Z,101919.13
2023-09-27T00:39:04.487Z,101914.38
2023-09-27T00:41:32.770Z,101917.50
2023-09-27T00:43:59.912Z,101910.28
2023-09-27T00:46:26.803Z,101907.41
2023-09-27T00:48:54.092Z,101912.78
2023-09-27T00:51:21.096Z,101912.78
2023-09-27T00:53:50.778Z,101911.13
2023-09-27T00:56:18.070Z,101898.53
2023-09-27T00:58:46.473Z,101910.28
2023-09-27T01:01:14.315Z,101910.66
2023-09-27T01:03:43.287Z,101909.84
2023-09-27T01:06:12.936Z,101910.25
2023-09-27T01:08:39.935Z,101920.34
2023-09-27T01:11:06.931Z,101910.81
2023-09-27T01:13:34.176Z,101902.97
2023-09-27T01:16:03.349Z,101889.75
2023-09-27T01:18:30.345Z,101875.88
2023-09-27T01:20:57.279Z,101877.13
2023-09-27T01:23:26.240Z,101878.16
2023-09-27T01:25:59.971Z,101881.19
2023-09-27T01:28:27.333Z,101880.78
2023-09-27T01:30:54.520Z,101885.50
2023-09-27T01:33:21.468Z,101885.03
2023-09-27T01:35:49.215Z,101887.13
2023-09-27T01:38:16.392Z,101877.41
2023-09-27T01:40:46.166Z,101876.13
2023-09-27T01:43:14.026Z,101877.53
2023-09-27T01:45:40.907Z,101871.75
2023-09-27T01:48:07.959Z,101871.13
2023-09-27T01:50:36.174Z,101871.50
2023-09-27T01:53:04.497Z,101864.88
2023-09-27T01:55:32.573Z,101868.56
2023-09-27T01:58:02.424Z,101860.06
2023-09-27T02:00:29.434Z,101865.84
2023-09-27T02:02:57.820Z,101858.38
2023-09-27T02:05:25.694Z,101855.25
2023-09-27T02:07:53.520Z,101852.75
2023-09-27T02:10:20.441Z,101851.31
2023-09-27T02:12:47.511Z,101857.88
2023-09-27T02:15:17.000Z,101868.13
2023-09-27T02:17:44.825Z,101875.38
2023-09-27T02:20:14.372Z,101875.38
2023-09-27T02:22:43.023Z,101857.81
2023-09-27T02:25:12.813Z,101857.53
2023-09-27T02:27:40.538Z,101863.25
2023-09-27T02:30:12.785Z,101867.13
2023-09-27T02:32:42.512Z,101873.50
2023-09-27T02:35:10.493Z,101871.66
2023-09-27T02:37:38.273Z,101875.81
2023-09-27T02:40:13.118Z,101878.69
2023-09-27T02:42:41.581Z,101877.84
2023-09-27T02:45:10.361Z,101875.38
2023-09-27T02:47:37.518Z,101880.94
2023-09-27T02:50:09.719Z,101879.25
2023-09-27T02:52:36.606Z,101882.97
2023-09-27T02:55:03.881Z,101881.13
2023-09-27T02:57:30.682Z,101879.44
2023-09-27T02:59:57.597Z,101874.50
2023-09-27T03:02:24.947Z,101886.22
2023-09-27T03:04:52.222Z,101891.13
2023-09-27T03:07:20.395Z,101886.34
2023-09-27T03:09:48.542Z,101891.88
2023-09-27T03:12:16.921Z,101889.38
2023-09-27T03:14:43.812Z,101882.56
2023-09-27T03:17:11.299Z,101888.75
2023-09-27T03:19:38.601Z,101886.25
2023-09-27T03:22:05.614Z,101888.75
2023-09-27T03:24:35.545Z,101880.91
2023-09-27T03:27:04.301Z,101885.63
2023-09-27T03:29:31.952Z,101887.84
2023-09-27T03:31:59.113Z,101885.34
2023-09-27T03:34:26.473Z,101885.72
2023-09-27T03:36:59.352Z,101887.75
2023-09-27T03:39:30.143Z,101895.78
2023-09-27T03:41:58.403Z,101886.13
2023-09-27T03:44:25.396Z,101890.81
2023-09-27T03:46:52.626Z,101889.16
2023-09-27T03:49:19.464Z,101897.19
2023-09-27T03:51:46.310Z,101900.22
2023-09-27T03:54:18.436Z,101908.66
2023-09-27T03:56:48.027Z,101911.16
2023-09-27T03:59:16.410Z,101910.13
2023-09-27T04:01:43.540Z,101911.97
2023-09-27T04:04:10.606Z,101908.25
2023-09-27T04:06:37.611Z,101893.25
2023-09-27T04:09:05.426Z,101890.75
2023-09-27T04:11:32.394Z,101884.72
2023-09-27T04:13:59.220Z,101889.25
2023-09-27T04:16:31.709Z,101890.28
2023-09-27T04:18:58.869Z,101900.34
2023-09-27T04:21:26.329Z,101896.00
2023-09-27T04:24:00.468Z,101895.38
2023-09-27T04:26:28.022Z,101906.25
2023-09-27T04:28:55.247Z,101905.63
2023-09-27T04:31:22.553Z,101912.19
2023-09-27T04:33:51.249Z,101908.66
2023-09-27T04:36:19.310Z,101914.19
2023-09-27T04:38:47.499Z,101905.34
2023-09-27T04:41:16.004Z,101894.81
2023-09-27T04:43:46.204Z,101905.72
2023-09-27T04:46:14.083Z,101905.06
2023-09-27T04:48:40.930Z,101915.31
2023-09-27T04:51:09.911Z,101920.03
2023-09-27T04:53:38.717Z,101924.53
2023-09-27T04:56:07.379Z,101932.56
2023-09-27T04:58:35.611Z,101943.28
2023-09-27T05:01:03.775Z,101941.63
2023-09-27T05:03:30.812Z,101936.44
2023-09-27T05:05:57.873Z,101937.44
2023-09-27T05:08:27.576Z,101946.50
2023-09-27T05:10:56.137Z,101950.38
2023-09-27T05:13:23.014Z,101942.53
2023-09-27T05:15:50.523Z,101943.38
2023-09-27T05:18:17.364Z,101935.34
2023-09-27T05:20:47.544Z,101920.28
2023-09-27T05:23:14.549Z,101914.09
2023-09-27T05:25:42.933Z,101911.81
2023-09-27T05:28:10.413Z,101911.16
2023-09-27T05:30:37.544Z,101912.00
2023-09-27T05:33:07.641Z,101904.63
2023-09-27T05:35:34.960Z,101911.81
2023-09-27T05:38:01.872Z,101909.31
2023-09-27T05:40:29.084Z,101913.44
2023-09-27T05:42:58.602Z,101912.66
2023-09-27T05:45:28.397Z,101914.28
2023-09-27T05:47:56.308Z,101906.91
2023-09-27T05:50:24.365Z,101917.06
2023-09-27T05:52:51.155Z,101915.88
2023-09-27T05:55:18.100Z,101919.19
2023-09-27T05:57:45.750Z,101920.03
2023-09-27T06:00:28.235Z,101906.47
2023-09-27T06:02:55.774Z,101904.59
2023-09-27T06:05:23.021Z,101903.59
2023-09-27T06:07:50.334Z,101909.59
2023-09-27T06:10:17.816Z,101907.56
2023-09-27T06:12:44.720Z,101902.84
2023-09-27T06:15:13.610Z,101908.84
2023-09-27T06:17:43.489Z,101904.31
2023-09-27T06:20:21.259Z,101892.44
2023-09-27T06:22:53.741Z,101893.69
2023-09-27T06:25:24.865Z,101898.69
2023-09-27T06:27:52.910Z,101899.13
2023-09-27T06:30:21.730Z,101898.78
2023-09-27T06:32:50.145Z,101903.75
2023-09-27T06:35:17.692Z,101903.19
2023-09-27T06:37:50.295Z,101898.47
2023-09-27T06:40:18.588Z,101893.56
2023-09-27T06:42:46.126Z,101897.72
2023-09-27T06:45:14.419Z,101897.34
2023-09-27T06:47:42.394Z,101902.34
2023-09-27T06:50:12.178Z,101916.16
2023-09-27T06:52:40.959Z,101905.91
2023-09-27T06:55:17.434Z,101907.38
2023-09-27T06:57:45.857Z,101924.75
2023-09-27T07:00:33.900Z,101922.50
2023-09-27T07:03:00.789Z,101918.44
2023-09-27T07:05:29.035Z,101919.88
2023-09-27T07:07:56.058Z,101916.00
2023-09-27T07:10:24.683Z,101919.16
2023-09-27T07:12:51.552Z,101908.88
2023-09-27T07:15:18.412Z,101905.84
2023-09-27T07:17:46.890Z,101906.28
2023-09-27T07:20:28.443Z,101907.78
2023-09-27T07:22:58.230Z,101913.38
2023-09-27T07:25:33.627Z,101910.31
2023-09-27T07:28:02.865Z,101905.41
2023-09-27T07:30:29.582Z,101916.59
2023-09-27T07:32:58.292Z,101915.34
2023-09-27T07:35:28.604Z,101919.50
2023-09-27T07:37:56.981Z,101929.66
2023-09-27T07:40:24.396Z,101931.13
2023-09-27T07:42:52.285Z,101925.38
2023-09-27T07:45:27.523Z,101919.63
2023-09-27T07:47:55.789Z,101915.56
2023-09-27T07:50:27.939Z,101917.00
2023-09-27T07:52:55.331Z,101910.44
2023-09-27T07:55:23.917Z,101901.97
2023-09-27T07:57:54.047Z,101891.88
2023-09-27T08:00:27.094Z,101894.38
2023-09-27T08:02:55.671Z,101902.03
2023-09-27T08:05:23.615Z,101896.28
2023-09-27T08:07:52.051Z,101904.78
2023-09-27T08:10:21.830Z,101904.56
2023-09-27T08:12:50.390Z,101910.38
2023-09-27T08:15:19.504Z,101913.50
2023-09-27T08:17:48.773Z,101904.88
2023-09-27T08:20:16.281Z,101907.97
2023-09-27T08:22:43.354Z,101908.44
2023-09-27T08:25:16.474Z,101910.69
2023-09-27T08:27:44.293Z,101912.00
2023-09-27T08:30:13.743Z,101904.34
2023-09-27T08:32:42.221Z,101911.19
2023-09-27T08:35:10.559Z,101927.53
2023-09-27T08:37:37.781Z,101932.56
2023-09-27T08:40:06.690Z,101935.66
2023-09-27T08:42:35.219Z,101937.97
2023-09-27T08:45:04.150Z,101959.84
2023-09-27T08:47:33.804Z,101961.13
2023-09-27T08:50:01.065Z,101963.41
2023-09-27T08:52:29.358Z,101954.78
2023-09-27T08:54:56.348Z,101959.53
2023-09-27T08:57:27.331Z,101969.69
2023-09-27T08:59:54.789Z,101964.56
2023-09-27T09:02:25.517Z,101966.44
2023-09-27T09:04:53.894Z,101960.47
2023-09-27T09:07:20.732Z,101967.13
2023-09-27T09:09:47.666Z,101953.06
2023-09-27T09:12:14.854Z,101952.47
2023-09-27T09:14:51.036Z,101946.50
2023-09-27T09:17:20.377Z,101939.50
2023-09-27T09:20:16.422Z,101943.84
2023-09-27T09:22:45.239Z,101942.03
2023-09-27T09:25:12.187Z,101941.22
2023-09-27T09:27:39.453Z,101933.97
2023-09-27T09:30:08.506Z,101926.78
2023-09-27T09:32:36.436Z,101944.16
2023-09-27T09:35:08.100Z,101923.50
2023-09-27T09:37:36.464Z,101924.75
2023-09-27T09:40:16.768Z,101917.50
2023-09-27T09:42:44.309Z,101918.34
2023-09-27T09:45:13.974Z,101915.63
2023-09-27T09:47:43.175Z,101910.44
2023-09-27T09:50:19.892Z,101908.59
2023-09-27T09:52:58.931Z,101905.69
2023-09-27T09:55:52.120Z,101910.03
2023-09-27T09:58:26.213Z,101900.06
2023-09-27T10:00:55.130Z,101889.94
2023-09-27T10:03:23.693Z,101884.31
2023-09-27T10:05:55.007Z,101882.63
2023-09-27T10:08:23.154Z,101879.28
2023-09-27T10:10:50.214Z,101878.66
2023-09-27T10:13:19.472Z,101877.19
2023-09-27T10:15:46.652Z,101860.38
2023-09-27T10:18:34.859Z,101859.53
2023-09-27T10:21:08.538Z,101848.31
2023-09-27T10:24:00.227Z,101843.72
2023-09-27T10:26:36.882Z,101846.59
2023-09-27T10:29:15.388Z,101841.19
2023-09-27T10:32:14.729Z,101839.47
2023-09-27T10:34:42.347Z,101837.56
2023-09-27T10:39:42.719Z,101834.78
2023-09-27T10:42:10.152Z,101835.19
2023-09-27T10:44:44.987Z,101832.69
2023-09-27T10:47:13.309Z,101835.53
2023-09-27T10:49:40.211Z,101842.97
2023-09-27T10:52:17.930Z,101847.47
2023-09-27T10:54:45.311Z,101827.94
2023-09-27T10:57:13.328Z,101824.78
2023-09-27T10:59:40.667Z,101822.50
2023-09-27T11:02:08.039Z,101830.13
2023-09-27T11:04:37.423Z,101813.50
2023-09-27T11:07:05.340Z,101804.16
2023-09-27T11:09:43.104Z,101801.00
2023-09-27T11:12:09.894Z,101805.75
2023-09-27T11:14:36.745Z,101808.81
2023-09-27T11:17:16.369Z,101807.56
2023-09-27T11:19:44.888Z,101801.69
2023-09-27T11:22:12.376Z,101793.16
2023-09-27T11:24:41.852Z,101788.38
2023-09-27T11:27:09.359Z,101778.16
2023-09-27T11:29:36.882Z,101774.19
2023-09-27T11:32:04.286Z,101772.31
2023-09-27T11:34:31.661Z,101770.22
2023-09-27T11:36:58.975Z,101759.16
2023-09-27T11:39:28.714Z,101758.13
2023-09-27T11:42:01.935Z,101744.41
2023-09-27T11:44:29.336Z,101749.38
2023-09-27T11:47:06.798Z,101742.88
2023-09-27T11:49:35.044Z,101742.44
2023-09-27T11:52:03.035Z,101732.25
2023-09-27T11:54:30.580Z,101728.06
2023-09-27T11:56:59.843Z,101723.88
2023-09-27T11:59:26.777Z,101719.66
2023-09-27T12:01:53.640Z,101709.00
2023-09-27T12:04:20.586Z,101699.41
2023-09-27T12:06:48.520Z,101699.31
2023-09-27T12:09:16.098Z,101708.13
2023-09-27T12:11:42.971Z,101704.50
2023-09-27T12:14:11.346Z,101698.41
2023-09-27T12:16:38.262Z,101697.97
2023-09-27T12:19:05.679Z,101694.56
2023-09-27T12:21:36.058Z,101680.38
2023-09-27T12:24:03.772Z,101689.66
2023-09-27T12:26:31.999Z,101686.59
2023-09-27T12:28:59.828Z,101682.38
2023-09-27T12:31:28.469Z,101679.22
2023-09-27T12:33:55.954Z,101675.22
2023-09-27T12:36:23.764Z,101668.50
2023-09-27T12:38:50.925Z,101663.47
2023-09-27T12:41:19.059Z,101660.31
2023-09-27T12:43:46.938Z,101660.69
2023-09-27T12:46:14.900Z,101663.72
2023-09-27T12:48:43.246Z,101664.31
2023-09-27T12:51:10.639Z,101651.19
2023-09-27T12:53:37.550Z,101648.81
2023-09-27T12:56:05.384Z,101651.63
2023-09-27T12:58:32.838Z,101652.81
2023-09-27T13:01:02.565Z,101648.56
2023-09-27T13:03:30.909Z,101654.06
2023-09-27T13:05:59.518Z,101653.97
2023-09-27T13:08:29.855Z,101637.84
2023-09-27T13:10:56.973Z,101642.28
2023-09-27T13:13:24.374Z,101636.97
2023-09-27T13:15:51.339Z,101642.25
2023-09-27T13:18:18.561Z,101632.38
2023-09-27T13:20:46.141Z,101629.19
2023-09-27T13:23:14.522Z,101633.31
2023-09-27T13:25:41.401Z,101633.88
2023-09-27T13:28:08.835Z,101632.59
2023-09-27T13:30:36.779Z,101624.25
2023-09-27T13:33:05.175Z,101616.72
2023-09-27T13:35:35.917Z,101620.25
2023-09-27T13:38:05.558Z,101619.16
2023-09-27T13:40:34.926Z,101612.69
2023-09-27T13:43:01.907Z,101602.91
2023-09-27T13:45:29.514Z,101602.91
2023-09-27T13:47:56.639Z,101598.31
2023-09-27T13:50:24.088Z,101592.91
2023-09-27T13:52:51.013Z,101592.91
2023-09-27T13:55:18.398Z,101595.38
2023-09-27T13:57:49.479Z,101592.75
2023-09-27T14:00:17.203Z,101584.63
2023-09-27T14:02:46.224Z,101589.56
2023-09-27T14:05:14.526Z,101587.47
2023-09-27T14:07:43.749Z,101577.19
2023-09-27T14:10:11.317Z,101561.53
2023-09-27T14:12:38.306Z,101555.88
2023-09-27T14:15:08.241Z,101550.22
2023-09-27T14:17:36.139Z,101555.38
2023-09-27T14:20:03.605Z,101551.34
2023-09-27T14:22:30.965Z,101549.22
2023-09-27T14:24:58.492Z,101550.59
2023-09-27T14:27:29.865Z,101546.84
2023-09-27T14:29:57.073Z,101547.91
2023-09-27T14:32:28.688Z,101547.91
2023-09-27T14:34:57.947Z,101554.13
2023-09-27T14:37:25.929Z,101549.00
2023-09-27T14:39:53.297Z,101548.16
2023-09-27T14:42:20.511Z,101549.47
2023-09-27T14:44:47.421Z,101550.75
2023-09-27T14:47:14.642Z,101552.66
2023-09-27T14:49:42.891Z,101551.03
2023-09-27T14:52:10.004Z,101538.78
2023-09-27T14:54:36.929Z,101541.50
2023-09-27T14:57:03.975Z,101540.69
2023-09-27T14:59:30.865Z,101535.50
2023-09-27T15:01:59.287Z,101530.09
2023-09-27T15:04:26.967Z,101524.91
2023-09-27T15:06:56.439Z,101528.94
2023-09-27T15:09:23.538Z,101526.81
2023-09-27T15:11:50.784Z,101530.00
2023-09-27T15:14:17.954Z,101524.59
2023-09-27T15:16:44.996Z,101522.34
2023-09-27T15:19:12.949Z,101520.75
2023-09-27T15:21:40.018Z,101512.03
2023-09-27T15:24:10.893Z,101524.97
2023-09-27T15:26:37.987Z,101522.78
2023-09-27T15:29:04.993Z,101520.31
2023-09-27T15:31:32.589Z,101506.41
2023-09-27T15:33:59.482Z,101502.31
2023-09-27T15:36:30.047Z,101509.00
2023-09-27T15:38:57.355Z,101507.88
2023-09-27T15:41:27.978Z,101506.69
2023-09-27T15:43:55.942Z,101501.19
2023-09-27T15:46:22.949Z,101498.94
2023-09-27T15:48:50.561Z,101496.47
2023-09-27T15:51:20.322Z,101500.28
2023-09-27T15:53:47.481Z,101502.16
2023-09-27T15:56:14.688Z,101501.81
2023-09-27T15:58:42.984Z,101499.34
2023-09-27T16:01:09.938Z,101499.59
2023-09-27T16:03:36.980Z,101505.25
2023-09-27T16:06:05.584Z,101501.72
2023-09-27T16:08:33.144Z,101497.84
2023-09-27T16:11:00.932Z,101497.03
2023-09-27T16:13:29.321Z,101490.22
2023-09-27T16:15:57.666Z,101493.16
2023-09-27T16:18:24.529Z,101485.53
2023-09-27T16:20:51.493Z,101494.94
2023-09-27T16:23:18.457Z,101500.34
2023-09-27T16:25:46.508Z,101496.25
2023-09-27T16:28:13.670Z,101490.84
2023-09-27T16:30:41.122Z,101486.75
2023-09-27T16:33:11.134Z,101482.38
2023-09-27T16:35:38.960Z,101477.22
2023-09-27T16:38:07.097Z,101467.69
2023-09-27T16:40:34.109Z,101464.66
2023-09-27T16:43:01.614Z,101468.06
2023-09-27T16:45:28.847Z,101464.56
2023-09-27T16:47:55.752Z,101463.38
2023-09-27T16:50:24.189Z,101451.97
2023-09-27T16:52:51.093Z,101438.72
2023-09-27T16:55:17.929Z,101436.25
2023-09-27T16:57:44.895Z,101431.31
2023-09-27T17:00:12.939Z,101426.41
2023-09-27T17:02:41.963Z,101431.19
2023-09-27T17:05:09.208Z,101418.13
2023-09-27T17:07:37.730Z,101422.97
2023-09-27T17:10:06.315Z,101432.16
2023-09-27T17:12:34.454Z,101438.59
2023-09-27T17:15:01.508Z,101445.31
2023-09-27T17:17:29.696Z,101430.13
2023-09-27T17:19:56.791Z,101425.00
2023-09-27T17:22:23.714Z,101428.16
2023-09-27T17:24:53.148Z,101416.75
2023-09-27T17:27:20.259Z,101418.06
2023-09-27T17:29:47.194Z,101415.59
2023-09-27T17:32:14.110Z,101406.56
2023-09-27T17:34:41.170Z,101391.66
2023-09-27T17:37:08.794Z,101396.97
2023-09-27T17:39:36.616Z,101408.81
2023-09-27T17:42:07.303Z,101416.94
2023-09-27T17:44:34.260Z,101411.97
2023-09-27T17:47:01.522Z,101418.47
2023-09-27T17:49:29.859Z,101414.34
2023-09-27T17:51:57.033Z,101418.34
2023-09-27T17:54:24.177Z,101406.38
2023-09-27T17:56:54.152Z,101404.72
2023-09-27T17:59:22.705Z,101395.44
2023-09-27T18:01:49.877Z,101396.97
2023-09-27T18:04:17.272Z,101390.41
2023-09-27T18:06:44.191Z,101398.75
2023-09-27T18:09:11.658Z,101403.22
2023-09-27T18:11:38.564Z,101407.22
2023-09-27T18:14:06.166Z,101396.88
2023-09-27T18:16:34.558Z,101397.34
2023-09-27T18:19:01.685Z,101381.59
2023-09-27T18:21:29.394Z,101391.22
2023-09-27T18:24:15.004Z,101383.81
2023-09-27T18:26:42.035Z,101391.34
2023-09-27T18:29:10.001Z,101379.34
2023-09-27T18:31:40.446Z,101380.66
2023-09-27T18:34:07.675Z,101374.06
2023-09-27T18:36:34.934Z,101374.28
2023-09-27T18:39:02.482Z,101370.19
2023-09-27T18:41:29.368Z,101369.59
2023-09-27T18:43:56.922Z,101363.88
2023-09-27T18:46:24.332Z,101359.75
2023-09-27T18:48:53.829Z,101351.06
2023-09-27T18:51:21.841Z,101360.47
2023-09-27T18:53:49.303Z,101357.16
2023-09-27T18:56:16.248Z,101356.56
2023-09-27T18:58:43.222Z,101358.66
2023-09-27T19:01:10.186Z,101360.19
2023-09-27T19:03:37.087Z,101357.97
2023-09-27T19:06:06.093Z,101353.03
2023-09-27T19:08:33.107Z,101361.13
2023-09-27T19:11:01.553Z,101365.72
2023-09-27T19:13:28.586Z,101356.19
2023-09-27T19:16:03.152Z,101352.94
2023-09-27T19:18:30.040Z,101351.28
2023-09-27T19:20:57.022Z,101360.41
2023-09-27T19:23:25.176Z,101358.78
2023-09-27T19:25:52.122Z,101363.56
2023-09-27T19:28:19.390Z,101362.75
2023-09-27T19:30:46.409Z,101351.38
2023-09-27T19:33:13.562Z,101354.31
2023-09-27T19:35:41.897Z,101342.09
2023-09-27T19:38:09.729Z,101346.09
2023-09-27T19:40:39.008Z,101335.53
2023-09-27T19:43:06.095Z,101337.63
2023-09-27T19:45:33.126Z,101330.81
2023-09-27T19:48:02.033Z,101327.31
2023-09-27T19:50:29.350Z,101324.84
2023-09-27T19:52:56.405Z,101332.34
2023-09-27T19:55:23.220Z,101331.75
2023-09-27T19:57:51.480Z,101327.41
2023-09-27T20:00:19.482Z,101333.63
2023-09-27T20:02:47.274Z,101322.22
2023-09-27T20:05:14.459Z,101318.72
2023-09-27T20:07:47.726Z,101320.34
2023-09-27T20:10:15.878Z,101325.75
2023-09-27T20:12:44.022Z,101313.91
2023-09-27T20:15:16.180Z,101295.25
2023-09-27T20:17:45.492Z,101290.09
2023-09-27T20:20:12.743Z,101271.22
2023-09-27T20:22:39.914Z,101277.44
2023-09-27T20:25:11.592Z,101297.97
2023-09-27T20:27:40.017Z,101295.25
2023-09-27T20:30:33.310Z,101294.44
2023-09-27T20:33:08.201Z,101307.94
2023-09-27T20:35:56.148Z,101317.88
2023-09-27T20:38:24.458Z,101303.56
2023-09-27T20:40:51.493Z,101291.38
2023-09-27T20:43:19.695Z,101289.97
2023-09-27T20:45:46.526Z,101282.13
2023-09-27T20:48:50.281Z,101272.59
2023-09-27T20:51:27.911Z,101265.81
2023-09-27T20:53:55.702Z,101253.38
2023-09-27T20:57:32.959Z,101248.00
2023-09-27T21:02:59.539Z,101228.09
2023-09-27T21:05:29.306Z,101218.91
2023-09-27T21:07:59.630Z,101208.72
2023-09-27T21:10:28.152Z,101202.28
2023-09-27T21:13:04.601Z,101200.41
2023-09-27T21:15:34.075Z,101192.31
2023-09-27T21:18:02.240Z,101199.38
2023-09-27T21:20:30.573Z,101205.31
2023-09-27T21:23:04.149Z,101228.78
2023-09-27T21:25:33.364Z,101233.38
2023-09-27T21:28:05.023Z,101227.97
2023-09-27T21:30:47.625Z,101228.78
2023-09-27T21:33:19.023Z,101243.06
2023-09-27T21:35:53.754Z,101240.16
2023-09-27T21:38:30.582Z,101240.16
2023-09-27T21:41:04.291Z,101244.72
2023-09-27T21:43:37.298Z,101252.81
2023-09-27T21:46:21.493Z,101242.03
2023-09-27T21:48:55.626Z,101248.47
2023-09-27T21:51:27.762Z,101229.59
2023-09-27T21:53:56.201Z,101229.34
2023-09-27T21:56:23.171Z,101225.84
2023-09-27T21:58:50.116Z,101210.50
2023-09-27T22:01:17.055Z,101203.22
2023-09-27T22:03:44.148Z,101229.13
2023-09-27T22:06:11.768Z,101203.00
2023-09-27T22:08:38.804Z,101199.47
2023-09-27T22:11:07.323Z,101193.25
2023-09-27T22:13:39.318Z,101189.75
2023-09-27T22:16:11.334Z,101177.31
2023-09-27T22:18:53.511Z,101181.88
2023-09-27T22:21:28.315Z,101183.75
2023-09-27T22:23:57.401Z,101177.31
2023-09-27T22:26:26.466Z,101171.91
2023-09-27T22:28:57.306Z,101179.19
2023-09-27T22:31:27.961Z,101173.78
2023-09-27T22:34:05.914Z,101187.03
2023-09-27T22:36:32.874Z,101181.06
2023-09-27T22:39:10.216Z,101214.00
2023-09-27T22:41:40.996Z,101231.84
2023-09-27T22:44:20.524Z,101237.00
2023-09-27T22:46:48.181Z,101236.16
2023-09-27T22:49:16.049Z,101220.00
2023-09-27T22:51:46.388Z,101221.66
2023-09-27T22:54:15.813Z,101221.44
2023-09-27T22:56:44.462Z,101211.69
2023-09-27T22:59:13.075Z,101212.28
2023-09-27T23:01:41.611Z,101211.47
2023-09-27T23:04:15.272Z,101210.41
2023-09-27T23:06:46.472Z,101205.84
2023-09-27T23:09:21.492Z,101207.47
2023-09-27T23:11:57.057Z,101203.50
2023-09-27T23:14:24.122Z,101197.53
2023-09-27T23:17:11.807Z,101190.03
2023-09-27T23:19:44.807Z,101188.38
2023-09-27T23:25:34.334Z,101200.22
2023-09-27T23:28:04.463Z,101197.53
2023-09-27T23:30:31.761Z,101201.03
2023-09-27T23:33:00.281Z,101205.59
2023-09-27T23:35:31.336Z,101205.38
2023-09-27T23:38:30.768Z,101201.84
2023-09-27T23:41:02.091Z,101202.91
2023-09-27T23:43:41.247Z,101208.53
2023-09-27T23:46:15.178Z,101208.53
2023-09-27T23:48:42.975Z,101196.09
2023-09-27T23:51:09.846Z,101197.97
2023-09-27T23:53:37.332Z,101195.72
2023-09-27T23:56:07.973Z,101197.59
2023-09-27T23:58:36.519Z,101190.34
